createdAt,value
2019-04-29T00:00:09.912Z,16.93
2019-04-29T00:02:41.148Z,15.43
2019-04-29T00:05:11.030Z,15.87
2019-04-29T00:07:40.512Z,16.33
2019-04-29T00:10:11.380Z,17.50
2019-04-29T00:12:40.930Z,15.70
2019-04-29T00:15:13.269Z,15.87
2019-04-29T00:17:44.383Z,16.67
2019-04-29T00:20:15.551Z,18.07
2019-04-29T00:22:45.031Z,17.70
2019-04-29T00:25:14.488Z,16.50
2019-04-29T00:27:44.310Z,17.20
2019-04-29T00:30:15.547Z,19.40
2019-04-29T00:32:45.095Z,19.20
2019-04-29T00:35:14.626Z,18.73
2019-04-29T00:38:01.109Z,16.67
2019-04-29T00:40:48.411Z,16.47
2019-04-29T00:43:31.807Z,14.10
2019-04-29T00:46:01.267Z,15.20
2019-04-29T00:48:31.719Z,13.93
2019-04-29T00:51:01.239Z,16.03
2019-04-29T00:53:30.979Z,16.27
2019-04-29T00:56:02.068Z,15.17
2019-04-29T00:58:31.551Z,15.33
2019-04-29T01:01:01.074Z,15.53
2019-04-29T01:03:30.618Z,16.37
2019-04-29T01:06:00.211Z,16.67
2019-04-29T01:08:29.773Z,14.90
2019-04-29T01:11:00.833Z,15.17
2019-04-29T01:13:30.301Z,16.20
2019-04-29T01:15:59.737Z,15.83
2019-04-29T01:18:29.201Z,15.33
2019-04-29T01:20:58.641Z,13.60
2019-04-29T01:23:28.114Z,14.80
2019-04-29T01:25:59.193Z,15.43
2019-04-29T01:28:39.225Z,15.17
2019-04-29T01:31:13.541Z,15.90
2019-04-29T01:33:43.079Z,15.23
2019-04-29T01:36:16.822Z,14.57
2019-04-29T01:38:48.819Z,14.70
2019-04-29T01:41:25.854Z,15.63
2019-04-29T01:44:02.846Z,16.57
2019-04-29T01:46:32.464Z,16.03
2019-04-29T01:49:01.933Z,14.90
2019-04-29T01:51:31.381Z,17.00
2019-04-29T01:54:00.836Z,17.53
2019-04-29T01:56:30.277Z,18.83
2019-04-29T01:58:59.745Z,17.23
2019-04-29T02:01:29.195Z,15.47
2019-04-29T02:03:58.666Z,15.00
2019-04-29T02:06:28.181Z,16.53
2019-04-29T02:08:57.817Z,18.33
2019-04-29T02:11:27.257Z,19.10
2019-04-29T02:13:56.722Z,18.33
2019-04-29T02:16:26.166Z,17.20
2019-04-29T02:18:55.651Z,18.37
2019-04-29T02:21:25.090Z,18.40
2019-04-29T02:24:08.214Z,19.30
2019-04-29T02:26:37.654Z,17.40
2019-04-29T02:29:07.594Z,17.07
2019-04-29T02:31:41.388Z,16.33
2019-04-29T02:34:11.207Z,17.20
2019-04-29T02:36:40.675Z,17.87
2019-04-29T02:39:24.520Z,18.60
2019-04-29T02:42:01.594Z,16.80
2019-04-29T02:44:31.056Z,18.37
2019-04-29T02:47:00.499Z,17.10
2019-04-29T02:49:29.972Z,19.30
2019-04-29T02:51:59.411Z,18.83
2019-04-29T02:54:30.097Z,18.73
2019-04-29T02:57:01.142Z,20.23
2019-04-29T02:59:33.227Z,20.13
2019-04-29T03:02:06.992Z,20.83
2019-04-29T03:04:51.380Z,19.63
2019-04-29T03:07:21.681Z,17.93
2019-04-29T03:09:51.321Z,17.00
2019-04-29T03:12:20.916Z,15.67
2019-04-29T03:14:50.488Z,17.63
2019-04-29T03:17:20.213Z,18.00
2019-04-29T03:19:57.647Z,19.17
2019-04-29T03:22:27.169Z,19.60
2019-04-29T03:24:57.606Z,16.37
2019-04-29T03:27:27.055Z,18.37
2019-04-29T03:29:56.517Z,18.00
2019-04-29T03:32:25.967Z,16.23
2019-04-29T03:34:55.449Z,15.50
2019-04-29T03:37:24.887Z,18.47
2019-04-29T03:39:54.342Z,17.20
2019-04-29T03:42:23.793Z,18.40
2019-04-29T03:44:53.282Z,20.00
2019-04-29T03:47:22.726Z,20.13
2019-04-29T03:49:52.193Z,19.17
2019-04-29T03:52:21.814Z,20.97
2019-04-29T03:54:51.287Z,19.47
2019-04-29T03:57:20.735Z,20.37
2019-04-29T03:59:50.211Z,18.47
2019-04-29T04:02:21.304Z,19.53
2019-04-29T04:04:55.126Z,21.03
2019-04-29T04:07:26.215Z,22.17
2019-04-29T04:09:55.697Z,19.13
2019-04-29T04:12:25.142Z,20.83
2019-04-29T04:14:54.619Z,21.60
2019-04-29T04:17:31.628Z,22.20
2019-04-29T04:20:01.089Z,21.17
2019-04-29T04:22:32.180Z,20.53
2019-04-29T04:25:01.658Z,19.43
2019-04-29T04:27:31.095Z,17.93
2019-04-29T04:30:00.566Z,17.10
2019-04-29T04:32:30.013Z,18.03
2019-04-29T04:34:59.481Z,19.90
2019-04-29T04:37:28.933Z,19.03
2019-04-29T04:39:58.407Z,20.40
2019-04-29T04:42:29.962Z,19.77
2019-04-29T04:44:58.938Z,23.57
2019-04-29T04:47:28.386Z,18.20
2019-04-29T04:49:57.847Z,19.33
2019-04-29T04:52:28.943Z,17.60
2019-04-29T04:54:58.564Z,18.77
2019-04-29T04:57:28.022Z,21.23
2019-04-29T04:59:57.483Z,18.20
2019-04-29T05:02:26.935Z,18.37
2019-04-29T05:04:56.418Z,19.23
2019-04-29T05:07:25.869Z,20.40
2019-04-29T05:09:55.366Z,18.30
2019-04-29T05:12:24.785Z,17.97
2019-04-29T05:14:55.846Z,18.57
2019-04-29T05:17:25.313Z,16.53
2019-04-29T05:19:55.733Z,19.57
2019-04-29T05:22:25.198Z,19.33
2019-04-29T05:24:54.649Z,18.60
2019-04-29T05:27:24.122Z,20.40
2019-04-29T05:29:53.568Z,21.97
2019-04-29T05:32:23.044Z,19.43
2019-04-29T05:34:59.597Z,20.07
2019-04-29T05:37:36.709Z,20.83
2019-04-29T05:40:07.102Z,21.10
2019-04-29T05:42:36.568Z,20.00
2019-04-29T05:45:15.065Z,21.07
2019-04-29T05:47:52.503Z,21.33
2019-04-29T05:50:36.419Z,19.63
2019-04-29T05:53:11.468Z,20.07
2019-04-29T05:55:39.578Z,19.23
2019-04-29T05:58:11.933Z,18.30
2019-04-29T06:00:44.682Z,19.07
2019-04-29T06:03:14.102Z,22.23
2019-04-29T06:05:43.578Z,25.03
2019-04-29T06:08:13.031Z,22.97
2019-04-29T06:10:42.524Z,25.63
2019-04-29T06:13:11.965Z,23.80
2019-04-29T06:15:41.420Z,24.17
2019-04-29T06:18:10.886Z,24.83
2019-04-29T06:20:40.326Z,25.20
2019-04-29T06:23:09.798Z,24.43
2019-04-29T06:25:40.313Z,23.13
2019-04-29T06:28:09.861Z,22.57
2019-04-29T06:30:40.685Z,24.53
2019-04-29T06:33:10.355Z,23.40
2019-04-29T06:35:43.348Z,23.57
2019-04-29T06:38:10.901Z,22.13
2019-04-29T06:40:40.345Z,22.03
2019-04-29T06:43:09.814Z,21.20
2019-04-29T06:45:39.265Z,22.43
2019-04-29T06:48:08.729Z,22.80
2019-04-29T06:50:38.249Z,22.80
2019-04-29T06:53:07.729Z,22.33
2019-04-29T06:55:37.179Z,22.40
2019-04-29T06:58:06.637Z,21.43
2019-04-29T07:00:36.161Z,21.40
2019-04-29T07:03:05.637Z,20.80
2019-04-29T07:05:35.081Z,21.00
2019-04-29T07:08:04.623Z,21.30
2019-04-29T07:10:34.074Z,20.13
2019-04-29T07:13:03.623Z,20.53
2019-04-29T07:15:34.047Z,18.57
2019-04-29T07:18:03.962Z,15.50
2019-04-29T07:20:37.064Z,16.47
2019-04-29T07:23:04.500Z,16.20
2019-04-29T07:25:33.938Z,14.03
2019-04-29T07:28:04.441Z,12.63
2019-04-29T07:30:39.308Z,13.83
2019-04-29T07:33:05.642Z,12.10
2019-04-29T07:35:38.056Z,11.23
2019-04-29T07:38:08.662Z,11.50
2019-04-29T07:40:38.754Z,12.70
2019-04-29T07:43:09.639Z,11.20
2019-04-29T07:45:47.951Z,11.57
2019-04-29T07:48:18.493Z,12.27
2019-04-29T07:50:47.942Z,11.70
2019-04-29T07:53:20.955Z,12.37
2019-04-29T07:55:48.486Z,12.40
2019-04-29T07:58:17.982Z,13.07
2019-04-29T08:00:48.882Z,14.17
2019-04-29T08:03:18.586Z,11.70
2019-04-29T08:05:48.223Z,11.20
2019-04-29T08:08:21.298Z,8.87
2019-04-29T08:10:55.927Z,8.13
2019-04-29T08:13:21.510Z,7.63
2019-04-29T08:15:50.958Z,8.83
2019-04-29T08:18:20.502Z,8.90
2019-04-29T08:20:50.022Z,8.73
2019-04-29T08:23:19.494Z,8.50
2019-04-29T08:25:50.911Z,9.83
2019-04-29T08:28:20.210Z,8.90
2019-04-29T08:30:49.659Z,9.63
2019-04-29T08:33:19.132Z,9.07
2019-04-29T08:35:48.655Z,9.57
2019-04-29T08:38:18.122Z,10.33
2019-04-29T08:40:50.214Z,10.63
2019-04-29T08:43:22.141Z,10.20
2019-04-29T08:45:55.851Z,10.27
2019-04-29T08:48:25.325Z,10.37
2019-04-29T08:50:54.771Z,9.77
2019-04-29T08:53:24.246Z,9.37
2019-04-29T08:55:53.715Z,10.73
2019-04-29T08:58:23.181Z,9.00
2019-04-29T09:00:55.856Z,8.97
2019-04-29T09:03:24.395Z,8.40
2019-04-29T09:06:05.252Z,7.73
2019-04-29T09:08:28.903Z,7.53
2019-04-29T09:10:56.146Z,6.80
2019-04-29T09:13:25.686Z,6.60
2019-04-29T09:15:55.129Z,5.77
2019-04-29T09:18:24.591Z,4.03
2019-04-29T09:20:54.033Z,4.30
2019-04-29T09:23:27.810Z,4.03
2019-04-29T09:26:03.292Z,3.90
2019-04-29T09:28:33.906Z,4.60
2019-04-29T09:31:03.351Z,4.70
2019-04-29T09:33:32.889Z,4.07
2019-04-29T09:36:02.431Z,4.03
2019-04-29T09:38:32.563Z,4.87
2019-04-29T09:41:11.398Z,4.87
2019-04-29T09:43:54.418Z,4.87
2019-04-29T09:46:25.565Z,5.40
2019-04-29T09:48:55.038Z,4.80
2019-04-29T09:51:27.829Z,4.90
2019-04-29T09:53:55.570Z,4.47
2019-04-29T09:56:25.010Z,4.93
2019-04-29T09:58:56.112Z,5.03
2019-04-29T10:01:30.126Z,4.87
2019-04-29T10:04:04.194Z,5.47
2019-04-29T10:06:35.350Z,5.50
2019-04-29T10:09:08.808Z,5.23
2019-04-29T10:11:38.685Z,5.77
2019-04-29T10:14:08.228Z,5.63
2019-04-29T10:16:42.412Z,5.83
2019-04-29T10:19:19.495Z,6.10
2019-04-29T10:21:49.006Z,6.50
2019-04-29T10:24:18.642Z,5.37
2019-04-29T10:26:48.094Z,5.90
2019-04-29T10:29:20.333Z,6.10
2019-04-29T10:31:49.827Z,5.23
2019-04-29T10:34:20.354Z,6.27
2019-04-29T10:36:52.254Z,5.57
2019-04-29T10:39:37.596Z,5.53
2019-04-29T10:42:08.750Z,6.50
2019-04-29T10:44:39.855Z,6.00
2019-04-29T10:47:13.937Z,6.60
2019-04-29T10:49:56.903Z,6.50
2019-04-29T10:52:26.593Z,7.67
2019-04-29T10:54:56.757Z,7.90
2019-04-29T10:57:29.244Z,8.13
2019-04-29T11:00:01.090Z,8.33
2019-04-29T11:02:38.813Z,9.13
2019-04-29T11:05:29.961Z,8.87
2019-04-29T11:08:04.723Z,11.03
2019-04-29T11:10:34.253Z,11.90
2019-04-29T11:13:03.941Z,11.47
2019-04-29T11:15:35.057Z,13.07
2019-04-29T11:18:05.532Z,13.87
2019-04-29T11:20:35.557Z,13.13
2019-04-29T11:23:09.797Z,14.03
2019-04-29T11:25:56.418Z,13.97
2019-04-29T11:28:26.080Z,15.93
2019-04-29T11:30:55.619Z,16.30
2019-04-29T11:33:44.990Z,15.40
2019-04-29T11:36:18.906Z,15.50
2019-04-29T11:38:48.367Z,17.10
2019-04-29T11:41:19.718Z,18.53
2019-04-29T11:43:50.996Z,17.93
2019-04-29T11:46:21.196Z,19.57
2019-04-29T11:48:52.606Z,19.83
2019-04-29T11:51:23.726Z,19.57
2019-04-29T11:53:53.173Z,19.70
2019-04-29T11:56:22.719Z,21.53
2019-04-29T11:58:53.875Z,21.63
2019-04-29T12:01:50.917Z,24.03
2019-04-29T12:04:16.213Z,23.10
2019-04-29T12:06:45.682Z,23.83
2019-04-29T12:09:15.207Z,22.97
2019-04-29T12:11:44.810Z,23.00
2019-04-29T12:14:18.833Z,23.27
2019-04-29T12:16:59.077Z,25.63
2019-04-29T12:19:30.179Z,22.67
2019-04-29T12:22:00.139Z,25.87
2019-04-29T12:24:29.735Z,28.60
2019-04-29T12:26:59.485Z,27.37
2019-04-29T12:29:28.935Z,25.90
2019-04-29T12:32:06.058Z,26.37
2019-04-29T12:34:52.012Z,26.33
2019-04-29T12:37:25.619Z,24.97
2019-04-29T12:40:09.738Z,25.53
2019-04-29T12:42:43.064Z,24.70
2019-04-29T12:45:20.029Z,24.17
2019-04-29T12:47:49.498Z,25.93
2019-04-29T12:50:21.737Z,25.67
2019-04-29T12:52:50.114Z,27.17
2019-04-29T12:55:43.608Z,26.33
2019-04-29T12:57:58.280Z,26.37
2019-04-29T13:00:29.403Z,27.70
2019-04-29T13:03:03.950Z,24.77
2019-04-29T13:05:35.196Z,26.93
2019-04-29T13:08:22.526Z,26.87
2019-04-29T13:10:53.651Z,25.43
2019-04-29T13:13:23.105Z,25.47
2019-04-29T13:16:00.056Z,25.90
2019-04-29T13:18:37.144Z,26.23
2019-04-29T13:21:10.266Z,27.10
2019-04-29T13:23:53.711Z,25.77
2019-04-29T13:26:08.889Z,27.37
2019-04-29T13:28:51.744Z,25.20
2019-04-29T13:31:09.672Z,26.07
2019-04-29T13:33:39.125Z,28.03
2019-04-29T13:36:08.738Z,25.17
2019-04-29T13:38:38.195Z,27.50
2019-04-29T13:41:13.201Z,25.57
2019-04-29T13:43:38.891Z,27.30
2019-04-29T13:46:10.575Z,26.93
2019-04-29T13:49:06.460Z,26.97
2019-04-29T13:51:36.383Z,27.03
2019-04-29T13:54:06.096Z,26.20
2019-04-29T13:56:54.820Z,25.97
2019-04-29T13:59:10.715Z,24.23
2019-04-29T14:01:58.656Z,26.13
2019-04-29T14:04:13.948Z,28.17
2019-04-29T14:06:56.118Z,25.87
2019-04-29T14:09:16.226Z,25.40
2019-04-29T14:11:45.721Z,25.37
2019-04-29T14:14:18.019Z,27.23
2019-04-29T14:16:47.635Z,25.77
2019-04-29T14:19:20.594Z,27.07
2019-04-29T14:21:48.459Z,27.93
2019-04-29T14:24:17.916Z,26.97
2019-04-29T14:26:47.921Z,26.67
2019-04-29T14:29:17.630Z,27.20
2019-04-29T14:31:48.747Z,28.57
2019-04-29T14:34:25.828Z,27.67
2019-04-29T14:36:57.507Z,26.73
2019-04-29T14:39:36.578Z,28.53
2019-04-29T14:41:59.191Z,27.53
2019-04-29T14:44:31.410Z,29.57
2019-04-29T14:47:02.620Z,28.53
2019-04-29T14:49:39.750Z,29.03
2019-04-29T14:52:08.389Z,29.20
2019-04-29T14:54:41.747Z,28.17
2019-04-29T14:57:09.985Z,30.00
2019-04-29T14:59:39.677Z,28.90
2019-04-29T15:02:16.120Z,28.00
2019-04-29T15:04:43.851Z,30.13
2019-04-29T15:07:13.320Z,29.67
2019-04-29T15:09:55.882Z,28.40
2019-04-29T15:12:29.234Z,28.40
2019-04-29T15:15:00.782Z,30.23
2019-04-29T15:17:34.727Z,26.60
2019-04-29T15:20:17.107Z,26.30
2019-04-29T15:22:46.568Z,28.97
2019-04-29T15:25:16.841Z,28.33
2019-04-29T15:27:47.342Z,28.37
2019-04-29T15:30:17.107Z,26.83
2019-04-29T15:32:46.596Z,29.83
2019-04-29T15:35:19.809Z,30.67
2019-04-29T15:37:47.156Z,28.60
2019-04-29T15:40:20.690Z,28.70
2019-04-29T15:42:51.100Z,28.40
2019-04-29T15:45:18.944Z,27.90
2019-04-29T15:47:48.443Z,28.30
2019-04-29T15:50:19.226Z,28.10
2019-04-29T15:52:49.092Z,28.70
2019-04-29T15:55:18.547Z,28.90
2019-04-29T15:57:50.407Z,28.80
2019-04-29T16:00:22.584Z,28.97
2019-04-29T16:02:50.454Z,28.30
2019-04-29T16:05:33.628Z,27.17
2019-04-29T16:08:04.716Z,22.57
2019-04-29T16:10:41.565Z,24.77
2019-04-29T16:13:15.685Z,24.17
2019-04-29T16:15:45.134Z,23.47
2019-04-29T16:18:15.060Z,25.33
2019-04-29T16:20:44.571Z,23.70
2019-04-29T16:23:14.054Z,24.33
2019-04-29T16:25:46.194Z,21.70
2019-04-29T16:28:14.616Z,22.27
2019-04-29T16:30:44.149Z,23.67
2019-04-29T16:33:15.427Z,23.10
2019-04-29T16:35:44.839Z,22.17
2019-04-29T16:38:14.377Z,22.10
2019-04-29T16:40:45.856Z,23.13
2019-04-29T16:43:33.450Z,22.43
2019-04-29T16:46:07.135Z,21.83
2019-04-29T16:48:37.663Z,22.17
2019-04-29T16:51:14.088Z,21.70
2019-04-29T16:53:38.283Z,21.67
2019-04-29T16:56:15.809Z,21.17
2019-04-29T16:58:39.906Z,21.60
2019-04-29T17:01:09.439Z,22.10
2019-04-29T17:03:38.924Z,23.40
2019-04-29T17:06:08.453Z,21.57
2019-04-29T17:09:03.534Z,23.63
2019-04-29T17:11:29.135Z,22.03
2019-04-29T17:14:03.417Z,22.67
2019-04-29T17:16:30.497Z,23.13
2019-04-29T17:18:59.980Z,22.77
2019-04-29T17:21:29.433Z,23.60
2019-04-29T17:23:59.093Z,22.90
2019-04-29T17:26:30.211Z,22.80
2019-04-29T17:29:11.674Z,22.60
2019-04-29T17:31:37.933Z,19.90
2019-04-29T17:34:29.336Z,22.63
2019-04-29T17:36:46.745Z,20.77
2019-04-29T17:39:17.937Z,21.10
2019-04-29T17:41:47.388Z,20.97
2019-04-29T17:44:21.224Z,21.60
2019-04-29T17:47:07.113Z,20.93
2019-04-29T17:49:39.520Z,20.20
2019-04-29T17:52:10.620Z,20.63
2019-04-29T17:54:47.784Z,19.57
2019-04-29T17:57:31.675Z,19.97
2019-04-29T18:00:05.143Z,21.93
2019-04-29T18:02:52.481Z,22.10
2019-04-29T18:05:32.973Z,19.90
2019-04-29T18:08:18.435Z,21.70
2019-04-29T18:10:52.395Z,20.10
2019-04-29T18:13:24.547Z,21.33
2019-04-29T18:16:01.732Z,21.40
2019-04-29T18:18:43.185Z,19.07
2019-04-29T18:21:19.791Z,20.23
2019-04-29T18:23:56.731Z,21.17
2019-04-29T18:26:38.663Z,21.20
2019-04-29T18:29:09.092Z,20.37
2019-04-29T18:31:38.584Z,19.80
2019-04-29T18:34:08.040Z,20.03
2019-04-29T18:36:37.520Z,19.23
2019-04-29T18:39:09.465Z,21.07
2019-04-29T18:41:39.220Z,22.63
2019-04-29T18:44:18.730Z,21.57
2019-04-29T18:46:39.912Z,22.87
2019-04-29T18:49:09.390Z,24.70
2019-04-29T18:51:38.866Z,25.43
2019-04-29T18:54:08.327Z,25.20
2019-04-29T18:56:37.907Z,26.80
2019-04-29T18:59:07.363Z,26.20
2019-04-29T19:01:36.844Z,25.10
2019-04-29T19:04:16.103Z,25.77
2019-04-29T19:06:41.873Z,26.27
2019-04-29T19:09:20.068Z,26.70
2019-04-29T19:11:43.547Z,27.33
2019-04-29T19:14:13.001Z,27.97
2019-04-29T19:16:43.437Z,27.97
2019-04-29T19:19:12.894Z,26.80
2019-04-29T19:21:42.356Z,27.47
2019-04-29T19:24:11.805Z,28.30
2019-04-29T19:26:41.290Z,28.80
2019-04-29T19:29:10.808Z,27.57
2019-04-29T19:31:48.086Z,26.77
2019-04-29T19:34:14.790Z,28.77
2019-04-29T19:36:45.143Z,30.43
2019-04-29T19:39:17.057Z,31.83
2019-04-29T19:41:50.387Z,32.97
2019-04-29T19:44:16.962Z,36.53
2019-04-29T19:46:46.431Z,37.97
2019-04-29T19:49:15.882Z,34.83
2019-04-29T19:51:47.303Z,38.63
2019-04-29T19:54:23.444Z,38.87
2019-04-29T19:56:47.653Z,39.20
2019-04-29T19:59:18.020Z,41.57
2019-04-29T20:01:51.108Z,42.00
2019-04-29T20:04:26.717Z,43.03
2019-04-29T20:07:03.611Z,42.67
2019-04-29T20:09:29.097Z,42.80
2019-04-29T20:11:58.764Z,44.87
2019-04-29T20:14:33.782Z,40.97
2019-04-29T20:17:09.480Z,44.27
2019-04-29T20:19:38.765Z,44.73
2019-04-29T20:22:09.579Z,45.90
2019-04-29T20:24:40.218Z,46.83
2019-04-29T20:27:10.262Z,49.80
2019-04-29T20:29:39.918Z,46.40
2019-04-29T20:32:10.542Z,49.20
2019-04-29T20:34:40.350Z,51.73
2019-04-29T20:37:14.988Z,52.47
2019-04-29T20:39:41.101Z,51.97
2019-04-29T20:42:10.785Z,51.80
2019-04-29T20:44:44.553Z,52.80
2019-04-29T20:47:22.116Z,53.10
2019-04-29T20:49:42.767Z,57.00
2019-04-29T20:52:26.071Z,57.67
2019-04-29T20:55:00.822Z,56.97
2019-04-29T20:57:27.740Z,55.20
2019-04-29T20:59:57.697Z,55.90
2019-04-29T21:02:34.735Z,57.57
2019-04-29T21:04:58.602Z,58.57
2019-04-29T21:07:28.198Z,59.33
2019-04-29T21:09:59.985Z,57.90
2019-04-29T21:12:36.640Z,58.77
2019-04-29T21:15:07.399Z,56.73
2019-04-29T21:17:40.259Z,56.00
2019-04-29T21:20:07.923Z,55.87
2019-04-29T21:22:37.395Z,55.43
2019-04-29T21:25:08.089Z,55.10
2019-04-29T21:27:37.558Z,56.13
2019-04-29T21:30:08.562Z,53.03
2019-04-29T21:32:39.058Z,50.93
2019-04-29T21:35:27.011Z,52.30
2019-04-29T21:38:17.918Z,52.97
2019-04-29T21:40:48.274Z,51.73
2019-04-29T21:43:26.114Z,52.57
2019-04-29T21:45:55.706Z,53.10
2019-04-29T21:48:33.114Z,49.70
2019-04-29T21:50:56.212Z,52.83
2019-04-29T21:53:25.690Z,52.50
2019-04-29T21:55:55.485Z,51.57
2019-04-29T21:58:28.691Z,51.70
2019-04-29T22:00:59.313Z,52.43
2019-04-29T22:03:29.227Z,53.47
2019-04-29T22:06:00.356Z,55.20
2019-04-29T22:08:30.042Z,52.17
2019-04-29T22:11:04.908Z,53.37
2019-04-29T22:13:35.530Z,50.37
2019-04-29T22:16:02.212Z,52.10
2019-04-29T22:18:31.752Z,52.13
2019-04-29T22:21:01.223Z,51.57
2019-04-29T22:23:30.689Z,51.93
2019-04-29T22:26:00.141Z,53.83
2019-04-29T22:28:29.609Z,54.87
2019-04-29T22:30:59.061Z,51.70
2019-04-29T22:33:29.637Z,55.57
2019-04-29T22:35:59.623Z,54.63
2019-04-29T22:38:29.099Z,53.60
2019-04-29T22:41:00.194Z,54.97
2019-04-29T22:43:31.321Z,56.33
2019-04-29T22:46:04.827Z,56.33
2019-04-29T22:48:34.763Z,53.20
2019-04-29T22:51:05.774Z,53.60
2019-04-29T22:53:35.891Z,52.80
2019-04-29T22:56:08.992Z,53.77
2019-04-29T22:58:39.517Z,55.20
2019-04-29T23:01:08.718Z,53.63
2019-04-29T23:03:38.848Z,54.83
2019-04-29T23:06:08.588Z,55.20
2019-04-29T23:08:38.366Z,54.67
2019-04-29T23:11:07.769Z,54.20
2019-04-29T23:13:38.062Z,54.67
2019-04-29T23:16:07.614Z,53.50
2019-04-29T23:18:42.006Z,55.07
2019-04-29T23:21:27.922Z,54.67
2019-04-29T23:24:01.465Z,54.87
2019-04-29T23:26:38.104Z,53.30
2019-04-29T23:29:03.605Z,53.63
2019-04-29T23:31:35.141Z,49.93
2019-04-29T23:34:05.773Z,52.10
2019-04-29T23:36:36.333Z,51.20
2019-04-29T23:39:06.741Z,51.77
2019-04-29T23:41:37.813Z,48.77
2019-04-29T23:44:08.869Z,49.07
2019-04-29T23:46:38.441Z,49.03
2019-04-29T23:49:07.918Z,47.90
2019-04-29T23:51:37.876Z,47.10
2019-04-29T23:54:08.028Z,49.37
2019-04-29T23:56:56.560Z,48.23
2019-04-29T23:59:52.872Z,48.23
